Time,TemperatureF,DewpointF,PressureIn,WindDirection,WindDirectionDegrees,WindSpeedMPH,WindSpeedGustMPH,Humidity,HourlyPrecipIn,Conditions,Clouds,dailyrainin,SolarRadiationWatts/m^2,SoftwareType,DateUTC
2013-08-10 00:01:00,80.1,74.5,30.02,SSE,150,0.0,2.0,83,0.00,,SCT025,0.04,0.00,VWS V14.00,2013-08-10 04:01:00,
2013-08-10 00:07:00,80.1,74.5,30.02,SSE,150,0.0,0.0,83,0.00,,SCT025,0.00,0.00,VWS V14.00,2013-08-10 04:07:00,
2013-08-10 00:12:00,80.1,74.5,30.02,SSE,150,0.0,0.0,83,0.00,,SCT025,0.00,0.00,VWS V14.00,2013-08-10 04:12:00,
2013-08-10 00:17:00,80.1,74.5,30.02,SSE,150,0.0,0.0,83,0.00,,SCT025,0.00,0.00,VWS V14.00,2013-08-10 04:17:00,
2013-08-10 00:22:00,80.1,74.5,30.02,SSE,150,0.0,3.0,83,0.00,,SCT025,0.00,0.00,VWS V14.00,2013-08-10 04:22:00,
2013-08-10 00:27:00,80.0,74.4,30.02,SSE,150,0.0,0.0,83,0.00,,SCT025,0.00,0.00,VWS V14.00,2013-08-10 04:27:00,
2013-08-10 00:32:00,80.0,74.4,30.02,SSE,150,0.0,2.0,83,0.00,,SCT025,0.00,0.00,VWS V14.00,2013-08-10 04:32:00,
2013-08-10 00:37:00,80.0,74.4,30.02,SSE,150,0.0,3.0,83,0.00,,SCT025,0.00,0.00,VWS V14.00,2013-08-10 04:37:00,
2013-08-10 00:42:00,80.0,74.4,30.02,SSE,150,0.0,1.0,83,0.00,,SCT025,0.00,0.00,VWS V14.00,2013-08-10 04:42:00,
2013-08-10 00:47:00,80.0,74.4,30.02,SSE,150,0.0,0.0,83,0.00,,SCT025,0.00,0.00,VWS V14.00,2013-08-10 04:47:00,
2013-08-10 00:52:00,79.9,74.3,30.02,SSE,150,2.0,4.0,83,0.00,,SCT025,0.00,0.00,VWS V14.00,2013-08-10 04:52:00,
2013-08-10 00:57:00,79.9,74.3,30.02,SSE,150,0.0,3.0,83,0.00,,SCT025,0.00,0.00,VWS V14.00,2013-08-10 04:57:00,
2013-08-10 01:02:00,79.9,74.3,30.02,SSE,150,2.0,2.0,83,0.00,,SCT025,0.00,0.00,VWS V14.00,2013-08-10 05:02:00,
2013-08-10 01:07:00,79.9,74.3,30.01,SSE,150,0.0,3.0,83,0.00,,SCT025,0.00,0.00,VWS V14.00,2013-08-10 05:07:00,
2013-08-10 01:12:00,79.9,74.3,30.02,SSE,150,0.0,0.0,83,0.00,,SCT025,0.00,0.00,VWS V14.00,2013-08-10 05:12:00,
2013-08-10 01:17:00,79.9,74.3,30.02,SSE,150,0.0,0.0,83,0.00,,SCT025,0.00,0.00,VWS V14.00,2013-08-10 05:17:00,
2013-08-10 01:22:00,79.8,74.2,30.01,SSE,150,0.0,2.0,83,0.00,,SCT025,0.00,0.00,VWS V14.00,2013-08-10 05:22:00,
2013-08-10 01:27:00,79.8,74.2,30.02,SSE,150,0.0,0.0,83,0.00,,SCT025,0.00,0.00,VWS V14.00,2013-08-10 05:27:00,
2013-08-10 01:32:00,79.8,74.2,30.02,SSE,150,0.0,0.0,83,0.00,,SCT025,0.00,0.00,VWS V14.00,2013-08-10 05:32:00,
2013-08-10 01:37:00,79.7,74.4,30.01,SSE,150,0.0,0.0,84,0.00,,SCT025,0.00,0.00,VWS V14.00,2013-08-10 05:37:00,
2013-08-10 01:42:00,79.6,74.3,30.02,SSE,150,0.0,0.0,84,0.00,,SCT025,0.00,0.00,VWS V14.00,2013-08-10 05:42:00,
2013-08-10 01:47:00,79.6,74.3,30.02,SSE,150,0.0,0.0,84,0.00,,SCT025,0.00,0.00,VWS V14.00,2013-08-10 05:47:00,
2013-08-10 01:52:00,79.5,74.2,30.01,SSE,150,0.0,0.0,84,0.00,,SCT025,0.00,0.00,VWS V14.00,2013-08-10 05:52:00,
2013-08-10 01:57:00,79.4,74.2,30.01,SSE,150,0.0,0.0,84,0.00,,SCT025,0.00,0.00,VWS V14.00,2013-08-10 05:57:00,
2013-08-10 02:02:00,79.4,74.5,30.01,SSE,150,0.0,0.0,85,0.00,,SCT025,0.00,0.00,VWS V14.00,2013-08-10 06:02:00,
2013-08-10 02:07:00,79.4,74.5,30.01,SSE,150,0.0,0.0,85,0.00,,SCT025,0.00,0.00,VWS V14.00,2013-08-10 06:07:00,
2013-08-10 02:12:00,79.4,74.5,30.01,SSE,150,0.0,0.0,85,0.00,,SCT025,0.00,0.00,VWS V14.00,2013-08-10 06:12:00,
2013-08-10 02:17:00,79.5,74.6,30.01,SSE,150,0.0,0.0,85,0.00,,SCT025,0.00,0.00,VWS V14.00,2013-08-10 06:17:00,
2013-08-10 02:22:00,79.4,74.5,30.00,SSE,150,0.0,2.0,85,0.00,,SCT025,0.00,0.00,VWS V14.00,2013-08-10 06:22:00,
2013-08-10 02:27:00,79.5,74.6,30.00,SSE,150,0.0,0.0,85,0.00,,SCT025,0.00,0.00,VWS V14.00,2013-08-10 06:27:00,
2013-08-10 02:32:00,79.5,74.6,30.00,SSE,150,0.0,0.0,85,0.00,,SCT025,0.00,0.00,VWS V14.00,2013-08-10 06:32:00,
2013-08-10 02:37:00,79.6,74.7,30.00,SSE,150,2.0,5.0,85,0.00,,SCT025,0.00,0.00,VWS V14.00,2013-08-10 06:37:00,
2013-08-10 02:42:00,79.6,74.7,30.00,SSE,150,3.0,3.0,85,0.00,,SCT025,0.00,0.00,VWS V14.00,2013-08-10 06:42:00,
2013-08-10 02:47:00,79.6,74.7,30.00,SSE,150,0.0,0.0,85,0.00,,SCT025,0.00,0.00,VWS V14.00,2013-08-10 06:47:00,
2013-08-10 02:52:00,79.7,74.8,30.00,SSE,150,0.0,1.0,85,0.00,,SCT025,0.00,0.00,VWS V14.00,2013-08-10 06:52:00,
2013-08-10 02:57:00,79.6,74.7,30.00,SSE,150,0.0,4.0,85,0.00,,SCT025,0.00,0.00,VWS V14.00,2013-08-10 06:57:00,
2013-08-10 03:02:00,79.7,74.8,30.00,SSE,150,0.0,4.0,85,0.00,,SCT025,0.00,0.00,VWS V14.00,2013-08-10 07:02:00,
2013-08-10 03:07:00,79.7,74.8,30.00,SSE,150,2.0,3.0,85,0.00,,SCT025,0.00,0.00,VWS V14.00,2013-08-10 07:07:00,
2013-08-10 03:13:00,79.8,74.9,30.00,SSE,150,5.0,6.0,85,0.00,,SCT025,0.00,0.00,VWS V14.00,2013-08-10 07:13:00,
2013-08-10 03:18:00,79.8,74.9,30.00,SSE,150,0.0,0.0,85,0.00,,SCT025,0.00,0.00,VWS V14.00,2013-08-10 07:18:00,
2013-08-10 03:23:00,79.9,75.0,29.99,SSE,150,3.0,4.0,85,0.00,,SCT025,0.00,0.00,VWS V14.00,2013-08-10 07:23:00,
2013-08-10 03:28:00,80.0,75.1,30.00,SSE,150,0.0,4.0,85,0.00,,SCT025,0.00,0.00,VWS V14.00,2013-08-10 07:28:00,
2013-08-10 03:33:00,80.0,75.1,30.00,SSE,150,2.0,4.0,85,0.00,,SCT025,0.00,0.00,VWS V14.00,2013-08-10 07:33:00,
2013-08-10 03:38:00,80.0,75.1,30.00,SSE,150,0.0,1.0,85,0.00,,SCT025,0.00,0.00,VWS V14.00,2013-08-10 07:38:00,
2013-08-10 03:43:00,80.0,75.1,29.99,SSE,150,2.0,4.0,85,0.00,,SCT025,0.00,0.00,VWS V14.00,2013-08-10 07:43:00,
2013-08-10 03:48:00,80.0,75.1,29.99,SSE,150,0.0,0.0,85,0.00,,SCT025,0.00,0.00,VWS V14.00,2013-08-10 07:48:00,
2013-08-10 03:53:00,80.0,75.1,29.99,SSE,150,0.0,0.0,85,0.00,,SCT025,0.00,0.00,VWS V14.00,2013-08-10 07:53:00,
2013-08-10 03:58:00,80.0,75.1,29.99,SSE,150,0.0,2.0,85,0.00,,SCT025,0.00,0.00,VWS V14.00,2013-08-10 07:58:00,
2013-08-10 04:03:00,80.0,75.1,29.99,SSE,150,0.0,1.0,85,0.00,,SCT025,0.00,0.00,VWS V14.00,2013-08-10 08:03:00,
2013-08-10 04:08:00,80.0,75.1,29.99,SSE,150,3.0,3.0,85,0.00,,SCT025,0.00,0.00,VWS V14.00,2013-08-10 08:08:00,
2013-08-10 04:13:00,80.0,75.1,29.99,SSE,150,0.0,2.0,85,0.00,,SCT025,0.00,0.00,VWS V14.00,2013-08-10 08:13:00,
2013-08-10 04:18:00,80.0,75.1,29.99,SSE,150,0.0,1.0,85,0.00,,SCT025,0.00,0.00,VWS V14.00,2013-08-10 08:18:00,
2013-08-10 04:23:00,80.1,75.2,29.99,SSE,151,6.0,6.0,85,0.00,,SCT025,0.00,0.00,VWS V14.00,2013-08-10 08:23:00,
2013-08-10 04:28:00,80.1,75.2,29.99,SSE,153,3.0,5.0,85,0.00,,SCT025,0.00,0.00,VWS V14.00,2013-08-10 08:28:00,
2013-08-10 04:33:00,80.2,75.3,29.99,SSE,153,4.0,4.0,85,0.00,,SCT025,0.00,0.00,VWS V14.00,2013-08-10 08:33:00,
2013-08-10 04:38:00,80.2,75.3,30.00,SSE,153,4.0,4.0,85,0.00,,SCT025,0.00,0.00,VWS V14.00,2013-08-10 08:38:00,
2013-08-10 04:43:00,80.2,75.3,30.00,SSE,155,3.0,5.0,85,0.00,,SCT025,0.00,0.00,VWS V14.00,2013-08-10 08:43:00,
2013-08-10 04:48:00,80.3,75.4,30.00,SSE,155,2.0,4.0,85,0.00,,SCT025,0.00,0.00,VWS V14.00,2013-08-10 08:48:00,
2013-08-10 04:53:00,80.3,75.4,30.00,SSE,155,2.0,4.0,85,0.00,,SCT025,0.00,0.00,VWS V14.00,2013-08-10 08:53:00,
2013-08-10 04:58:00,80.2,75.3,30.00,SSE,155,0.0,1.0,85,0.00,,SCT025,0.00,0.00,VWS V14.00,2013-08-10 08:58:00,
2013-08-10 05:03:00,80.2,75.3,30.00,SSE,155,0.0,5.0,85,0.00,,SCT025,0.00,0.00,VWS V14.00,2013-08-10 09:03:00,
2013-08-10 05:08:00,80.1,75.2,30.00,SSE,155,0.0,1.0,85,0.00,,SCT025,0.00,0.00,VWS V14.00,2013-08-10 09:08:00,
2013-08-10 05:13:00,80.1,75.2,30.00,SSE,155,5.0,6.0,85,0.00,,SCT025,0.00,0.00,VWS V14.00,2013-08-10 09:13:00,
2013-08-10 05:18:00,80.1,75.2,29.99,SSE,155,2.0,4.0,85,0.00,,SCT025,0.00,0.00,VWS V14.00,2013-08-10 09:18:00,
2013-08-10 05:23:00,80.2,75.3,30.00,SSE,155,0.0,4.0,85,0.00,,SCT025,0.00,0.00,VWS V14.00,2013-08-10 09:23:00,
2013-08-10 05:28:00,80.2,75.3,30.00,SSE,155,0.0,4.0,85,0.00,,SCT025,0.00,0.00,VWS V14.00,2013-08-10 09:28:00,
2013-08-10 05:33:00,80.3,75.4,30.00,SSE,155,1.0,2.0,85,0.00,,SCT025,0.00,0.00,VWS V14.00,2013-08-10 09:33:00,
2013-08-10 05:38:00,80.3,75.4,30.00,SSE,155,0.0,3.0,85,0.00,,SCT025,0.00,0.00,VWS V14.00,2013-08-10 09:38:00,
2013-08-10 05:43:00,80.4,75.5,30.00,SSE,155,0.0,1.0,85,0.00,,SCT025,0.00,0.00,VWS V14.00,2013-08-10 09:43:00,
2013-08-10 05:48:00,80.4,75.5,30.00,SSE,155,3.0,6.0,85,0.00,,SCT025,0.00,0.00,VWS V14.00,2013-08-10 09:48:00,
2013-08-10 05:53:00,80.5,75.6,30.00,SSE,155,0.0,3.0,85,0.00,,SCT025,0.00,0.00,VWS V14.00,2013-08-10 09:53:00,
2013-08-10 05:58:00,80.5,75.6,30.00,SSE,155,0.0,3.0,85,0.00,,SCT025,0.00,0.00,VWS V14.00,2013-08-10 09:58:00,
2013-08-10 06:03:00,80.6,75.7,30.00,SSE,155,0.0,5.0,85,0.00,,SCT025,0.00,0.00,VWS V14.00,2013-08-10 10:03:00,
2013-08-10 06:08:00,80.6,75.7,30.00,SSE,155,0.0,0.0,85,0.00,,SCT025,0.00,0.00,VWS V14.00,2013-08-10 10:08:00,
2013-08-10 06:13:00,80.6,75.7,30.00,SSE,155,4.0,5.0,85,0.00,,SCT025,0.00,0.00,VWS V14.00,2013-08-10 10:13:00,
2013-08-10 06:19:00,80.7,75.8,30.00,SSE,155,0.0,0.0,85,0.00,,SCT025,0.00,0.00,VWS V14.00,2013-08-10 10:19:00,
2013-08-10 06:24:00,80.7,75.8,30.01,SSE,156,0.0,4.0,85,0.00,,SCT025,0.00,0.00,VWS V14.00,2013-08-10 10:24:00,
2013-08-10 06:29:00,80.9,76.0,30.01,SSE,157,2.0,7.0,85,0.00,,SCT025,0.00,0.00,VWS V14.00,2013-08-10 10:29:00,
2013-08-10 06:34:00,81.0,76.1,30.01,SSE,157,3.0,4.0,85,0.00,,SCT025,0.00,0.00,VWS V14.00,2013-08-10 10:34:00,
2013-08-10 06:39:00,80.9,76.0,30.01,SSE,151,0.0,4.0,85,0.00,,SCT025,0.00,0.00,VWS V14.00,2013-08-10 10:39:00,
2013-08-10 06:44:00,80.9,76.0,30.01,SSE,151,4.0,7.0,85,0.00,,SCT025,0.00,0.00,VWS V14.00,2013-08-10 10:44:00,
2013-08-10 06:49:00,80.8,75.9,30.01,SSE,151,4.0,5.0,85,0.00,,SCT025,0.00,0.00,VWS V14.00,2013-08-10 10:49:00,
2013-08-10 06:54:00,80.8,75.9,30.01,SSE,148,3.0,7.0,85,0.00,,SCT025,0.00,0.00,VWS V14.00,2013-08-10 10:54:00,
2013-08-10 06:59:00,80.8,75.9,30.01,SSE,147,4.0,5.0,85,0.00,,SCT025,0.00,0.00,VWS V14.00,2013-08-10 10:59:00,
2013-08-10 07:04:00,80.8,75.9,30.01,SSE,148,5.0,6.0,85,0.00,,SCT025,0.00,5.00,VWS V14.00,2013-08-10 11:04:00,
2013-08-10 07:09:00,80.9,76.0,30.01,SSE,148,3.0,5.0,85,0.00,,SCT025,0.00,16.00,VWS V14.00,2013-08-10 11:09:00,
2013-08-10 07:14:00,80.9,76.0,30.01,SE,146,4.0,6.0,85,0.00,,SCT025,0.00,51.00,VWS V14.00,2013-08-10 11:14:00,
2013-08-10 07:19:00,81.1,75.8,30.01,SE,146,2.0,7.0,84,0.00,,SCT025,0.00,39.00,VWS V14.00,2013-08-10 11:19:00,
2013-08-10 07:24:00,81.3,76.0,30.01,SSE,150,5.0,9.0,84,0.00,,SCT025,0.00,53.00,VWS V14.00,2013-08-10 11:24:00,
2013-08-10 07:29:00,81.5,75.8,30.02,SSE,157,5.0,6.0,83,0.00,,SCT025,0.00,37.00,VWS V14.00,2013-08-10 11:29:00,
2013-08-10 07:34:00,81.7,75.7,30.02,SSE,157,2.0,4.0,82,0.00,,SCT025,0.00,141.00,VWS V14.00,2013-08-10 11:34:00,
2013-08-10 07:39:00,82.0,75.2,30.02,South,173,10.0,10.0,80,0.00,,SCT025,0.00,155.00,VWS V14.00,2013-08-10 11:39:00,
2013-08-10 07:44:00,82.2,75.4,30.02,SSE,167,4.0,10.0,80,0.00,,SCT025,0.00,156.00,VWS V14.00,2013-08-10 11:44:00,
2013-08-10 07:49:00,82.4,75.2,30.01,SSE,155,6.0,10.0,79,0.00,,SCT025,0.00,111.00,VWS V14.00,2013-08-10 11:49:00,
2013-08-10 07:54:00,82.5,75.3,30.01,SSE,163,5.0,7.0,79,0.00,,SCT025,0.00,67.00,VWS V14.00,2013-08-10 11:54:00,
2013-08-10 07:59:00,82.4,75.2,30.01,SSE,163,3.0,4.0,79,0.00,,SCT025,0.00,121.00,VWS V14.00,2013-08-10 11:59:00,
2013-08-10 08:04:00,82.5,75.7,30.02,SSE,163,4.0,5.0,80,0.00,,SCT025,0.00,139.00,VWS V14.00,2013-08-10 12:04:00,
2013-08-10 08:09:00,82.6,75.8,30.02,SSE,167,0.0,0.0,80,0.00,,SCT025,0.00,158.00,VWS V14.00,2013-08-10 12:09:00,
2013-08-10 08:14:00,82.8,76.0,30.02,South,169,2.0,4.0,80,0.00,,SCT025,0.00,193.00,VWS V14.00,2013-08-10 12:14:00,
2013-08-10 08:19:00,83.2,76.0,30.02,SSE,167,5.0,7.0,79,0.00,,SCT025,0.00,162.00,VWS V14.00,2013-08-10 12:19:00,
2013-08-10 08:24:00,83.3,76.5,30.03,SSE,167,3.0,5.0,80,0.00,,SCT025,0.00,160.00,VWS V14.00,2013-08-10 12:24:00,
2013-08-10 08:29:00,83.6,76.4,30.03,SSE,163,3.0,4.0,79,0.00,,SCT025,0.00,163.00,VWS V14.00,2013-08-10 12:29:00,
2013-08-10 08:34:00,83.7,76.5,30.03,SSE,158,3.0,8.0,79,0.00,,SCT025,0.00,35.00,VWS V14.00,2013-08-10 12:34:00,
2013-08-10 08:39:00,83.5,76.3,30.04,SSE,160,6.0,9.0,79,0.00,,SCT025,0.00,35.00,VWS V14.00,2013-08-10 12:39:00,
2013-08-10 08:44:00,83.3,76.9,30.04,SSE,153,2.0,6.0,81,0.00,,SCT025,0.00,98.00,VWS V14.00,2013-08-10 12:44:00,
2013-08-10 08:49:00,83.2,77.5,30.04,SSE,150,0.0,6.0,83,0.00,,SCT025,0.00,185.00,VWS V14.00,2013-08-10 12:49:00,
2013-08-10 08:54:00,83.4,77.7,30.04,SE,146,4.0,5.0,83,0.00,,SCT025,0.00,160.00,VWS V14.00,2013-08-10 12:54:00,
2013-08-10 08:59:00,83.5,77.4,30.04,SSE,150,6.0,7.0,82,0.00,,SCT025,0.00,132.00,VWS V14.00,2013-08-10 12:59:00,
2013-08-10 09:04:00,83.7,77.2,30.04,SSE,150,8.0,13.0,81,0.00,,SCT025,0.00,165.00,VWS V14.00,2013-08-10 13:04:00,
2013-08-10 09:09:00,83.9,76.7,30.04,SSE,148,9.0,13.0,79,0.00,,SCT025,0.00,195.00,VWS V14.00,2013-08-10 13:09:00,
2013-08-10 09:14:00,83.9,75.5,30.04,SSE,148,6.0,18.0,76,0.00,,SCT025,0.00,79.00,VWS V14.00,2013-08-10 13:14:00,
2013-08-10 09:19:00,83.9,75.1,30.04,South,175,16.0,16.0,75,0.00,,SCT025,0.00,156.00,VWS V14.00,2013-08-10 13:19:00,
2013-08-10 09:24:00,83.9,75.5,30.04,SE,146,10.0,11.0,76,0.00,,SCT025,0.00,141.00,VWS V14.00,2013-08-10 13:24:00,
2013-08-10 09:29:00,84.1,75.3,30.04,SSE,155,8.0,14.0,75,0.00,,SCT025,0.00,176.00,VWS V14.00,2013-08-10 13:29:00,
2013-08-10 09:34:00,84.4,75.6,30.05,South,171,4.0,15.0,75,0.00,,SCT025,0.00,207.00,VWS V14.00,2013-08-10 13:34:00,
2013-08-10 09:39:00,84.8,75.6,30.05,SSE,163,8.0,15.0,74,0.00,,SCT025,0.00,230.00,VWS V14.00,2013-08-10 13:39:00,
2013-08-10 09:44:00,85.0,75.4,30.05,SSE,150,10.0,13.0,73,0.00,,SCT025,0.00,76.00,VWS V14.00,2013-08-10 13:44:00,
2013-08-10 09:49:00,84.7,75.9,30.05,South,185,9.0,9.0,75,0.00,,SCT025,0.00,116.00,VWS V14.00,2013-08-10 13:49:00,
2013-08-10 09:54:00,84.5,76.1,30.05,South,174,9.0,9.0,76,0.00,,SCT025,0.00,84.00,VWS V14.00,2013-08-10 13:54:00,
2013-08-10 09:59:00,84.6,76.2,30.05,SSE,168,2.0,5.0,76,0.00,,SCT025,0.00,227.00,VWS V14.00,2013-08-10 13:59:00,
2013-08-10 10:04:00,85.2,76.8,30.05,SSE,153,11.0,11.0,76,0.00,,SCT025,0.00,229.00,VWS V14.00,2013-08-10 14:04:00,
2013-08-10 10:09:00,85.6,76.4,30.05,South,184,6.0,11.0,74,0.00,,SCT025,0.00,186.00,VWS V14.00,2013-08-10 14:09:00,
2013-08-10 10:14:00,85.7,75.6,30.06,SSE,165,4.0,5.0,72,0.00,,SCT025,0.00,146.00,VWS V14.00,2013-08-10 14:14:00,
2013-08-10 10:19:00,86.2,76.5,30.05,SSE,150,7.0,9.0,73,0.00,,SCT025,0.00,250.00,VWS V14.00,2013-08-10 14:19:00,
2013-08-10 10:25:00,86.4,75.9,30.05,SSE,156,9.0,14.0,71,0.00,,SCT025,0.00,81.00,VWS V14.00,2013-08-10 14:25:00,
2013-08-10 10:30:00,86.1,76.8,30.06,South,170,11.0,20.0,74,0.00,,SCT025,0.00,232.00,VWS V14.00,2013-08-10 14:30:00,
2013-08-10 10:35:00,86.0,76.8,30.06,SSW,192,5.0,11.0,74,0.00,,SCT025,0.00,237.00,VWS V14.00,2013-08-10 14:35:00,
2013-08-10 10:40:00,86.0,76.3,30.06,SSE,149,9.0,14.0,73,0.00,,SCT025,0.00,104.00,VWS V14.00,2013-08-10 14:40:00,
2013-08-10 10:45:00,86.0,76.8,30.07,South,182,7.0,11.0,74,0.00,,SCT025,0.00,111.00,VWS V14.00,2013-08-10 14:45:00,
2013-08-10 10:50:00,85.7,75.6,30.07,South,186,5.0,13.0,72,0.00,,SCT025,0.00,128.00,VWS V14.00,2013-08-10 14:50:00,
2013-08-10 10:55:00,86.0,75.9,30.07,South,170,11.0,12.0,72,0.00,,SCT025,0.00,237.00,VWS V14.00,2013-08-10 14:55:00,
2013-08-10 11:00:00,86.2,75.7,30.07,South,177,6.0,13.0,71,0.00,,SCT025,0.00,114.00,VWS V14.00,2013-08-10 15:00:00,
2013-08-10 11:05:00,86.3,76.6,30.07,SE,144,7.0,15.0,73,0.00,,SCT025,0.00,239.00,VWS V14.00,2013-08-10 15:05:00,
2013-08-10 11:10:00,86.3,76.2,30.07,South,180,7.0,16.0,72,0.00,,SCT025,0.00,100.00,VWS V14.00,2013-08-10 15:10:00,
2013-08-10 11:15:00,85.9,76.2,30.07,South,176,5.0,14.0,73,0.00,,SCT025,0.00,251.00,VWS V14.00,2013-08-10 15:15:00,
2013-08-10 11:20:00,85.9,75.8,30.07,SSE,161,12.0,14.0,72,0.00,,SCT025,0.00,244.00,VWS V14.00,2013-08-10 15:20:00,
2013-08-10 11:25:00,86.3,75.8,30.07,SSE,148,6.0,12.0,71,0.00,,SCT025,0.00,218.00,VWS V14.00,2013-08-10 15:25:00,
2013-08-10 11:30:00,86.8,75.0,30.06,SSE,159,9.0,10.0,68,0.00,,SCT025,0.00,223.00,VWS V14.00,2013-08-10 15:30:00,
2013-08-10 11:35:00,87.1,75.7,30.06,SSE,167,3.0,12.0,69,0.00,,SCT025,0.00,221.00,VWS V14.00,2013-08-10 15:35:00,
2013-08-10 11:40:00,87.4,76.8,30.07,South,176,6.0,6.0,71,0.00,,SCT025,0.00,234.00,VWS V14.00,2013-08-10 15:40:00,
2013-08-10 11:45:00,87.7,76.3,30.07,SSW,198,11.0,12.0,69,0.00,,SCT025,0.00,237.00,VWS V14.00,2013-08-10 15:45:00,
2013-08-10 11:50:00,87.8,75.9,30.07,SSE,163,5.0,13.0,68,0.00,,SCT025,0.00,167.00,VWS V14.00,2013-08-10 15:50:00,
2013-08-10 11:55:00,87.4,75.6,30.07,SSE,157,9.0,15.0,68,0.00,,SCT025,0.00,218.00,VWS V14.00,2013-08-10 15:55:00,
2013-08-10 12:00:00,87.7,76.3,30.07,South,169,11.0,14.0,69,0.00,,SCT025,0.00,220.00,VWS V14.00,2013-08-10 16:00:00,
2013-08-10 12:05:00,87.6,74.8,30.07,South,178,13.0,15.0,66,0.00,,SCT025,0.00,225.00,VWS V14.00,2013-08-10 16:05:00,
2013-08-10 12:10:00,87.5,75.2,30.07,SSE,163,6.0,14.0,67,0.00,,SCT025,0.00,227.00,VWS V14.00,2013-08-10 16:10:00,
2013-08-10 12:15:00,87.3,75.9,30.07,SE,142,10.0,14.0,69,0.00,,SCT025,0.00,218.00,VWS V14.00,2013-08-10 16:15:00,
2013-08-10 12:20:00,87.5,75.6,30.07,SSE,161,7.0,12.0,68,0.00,,SCT025,0.00,214.00,VWS V14.00,2013-08-10 16:20:00,
2013-08-10 12:25:00,87.9,76.0,30.07,South,184,3.0,7.0,68,0.00,,SCT025,0.00,195.00,VWS V14.00,2013-08-10 16:25:00,
2013-08-10 12:30:00,88.2,75.9,30.07,South,175,6.0,17.0,67,0.00,,SCT025,0.00,221.00,VWS V14.00,2013-08-10 16:30:00,
2013-08-10 12:35:00,88.2,75.9,30.07,SSE,151,4.0,12.0,67,0.00,,SCT025,0.00,236.00,VWS V14.00,2013-08-10 16:35:00,
2013-08-10 12:40:00,88.3,76.4,30.07,SSE,165,6.0,9.0,68,0.00,,SCT025,0.00,237.00,VWS V14.00,2013-08-10 16:40:00,
2013-08-10 12:45:00,88.6,75.8,30.07,SSE,159,12.0,15.0,66,0.00,,SCT025,0.00,239.00,VWS V14.00,2013-08-10 16:45:00,
2013-08-10 12:50:00,88.5,75.7,30.06,SSE,160,11.0,17.0,66,0.00,,SCT025,0.00,243.00,VWS V14.00,2013-08-10 16:50:00,
2013-08-10 12:55:00,88.0,75.2,30.06,SSE,160,5.0,10.0,66,0.00,,SCT025,0.00,100.00,VWS V14.00,2013-08-10 16:55:00,
2013-08-10 13:00:00,88.2,75.9,30.06,SE,138,11.0,11.0,67,0.00,,SCT025,0.00,230.00,VWS V14.00,2013-08-10 17:00:00,
2013-08-10 13:05:00,88.4,75.6,30.06,South,178,10.0,12.0,66,0.00,,SCT025,0.00,105.00,VWS V14.00,2013-08-10 17:05:00,
2013-08-10 13:10:00,88.1,76.2,30.06,SSW,192,7.0,12.0,68,0.00,,SCT025,0.00,244.00,VWS V14.00,2013-08-10 17:10:00,
2013-08-10 13:15:00,88.1,76.7,30.06,SSE,159,6.0,10.0,69,0.00,,SCT025,0.00,246.00,VWS V14.00,2013-08-10 17:15:00,
2013-08-10 13:20:00,88.3,76.0,30.06,South,180,8.0,12.0,67,0.00,,SCT025,0.00,246.00,VWS V14.00,2013-08-10 17:20:00,
2013-08-10 13:25:00,88.9,77.0,30.06,SE,146,16.0,16.0,68,0.00,,SCT025,0.00,241.00,VWS V14.00,2013-08-10 17:25:00,
2013-08-10 13:30:00,88.8,76.9,30.06,SSE,167,4.0,12.0,68,0.00,,SCT025,0.00,127.00,VWS V14.00,2013-08-10 17:30:00,
2013-08-10 13:35:00,88.5,77.0,30.06,SE,142,6.0,10.0,69,0.00,,FEW048,0.00,239.00,VWS V14.00,2013-08-10 17:35:00,
2013-08-10 13:40:00,88.1,76.7,30.05,SSW,203,7.0,13.0,69,0.00,,FEW048,0.00,97.00,VWS V14.00,2013-08-10 17:40:00,
2013-08-10 13:46:00,88.2,76.3,30.05,SSW,192,3.0,13.0,68,0.00,,FEW048,0.00,216.00,VWS V14.00,2013-08-10 17:46:00,
2013-08-10 13:51:00,88.4,76.5,30.05,SSE,163,5.0,11.0,68,0.00,,FEW048,0.00,211.00,VWS V14.00,2013-08-10 17:51:00,
2013-08-10 13:56:00,88.4,75.6,30.05,SSE,157,8.0,11.0,66,0.00,,FEW048,0.00,213.00,VWS V14.00,2013-08-10 17:56:00,
2013-08-10 14:01:00,88.6,76.2,30.05,SE,146,12.0,12.0,67,0.00,,FEW048,0.00,213.00,VWS V14.00,2013-08-10 18:01:00,
2013-08-10 14:06:00,88.6,76.2,30.05,SSE,168,10.0,17.0,67,0.00,,FEW048,0.00,200.00,VWS V14.00,2013-08-10 18:06:00,
2013-08-10 14:11:00,88.8,76.0,30.05,SE,136,4.0,12.0,66,0.00,,FEW048,0.00,163.00,VWS V14.00,2013-08-10 18:11:00,
2013-08-10 14:16:00,88.7,75.9,30.04,SSE,165,9.0,14.0,66,0.00,,FEW048,0.00,76.00,VWS V14.00,2013-08-10 18:16:00,
2013-08-10 14:21:00,88.6,76.2,30.04,SSW,200,10.0,12.0,67,0.00,,FEW048,0.00,193.00,VWS V14.00,2013-08-10 18:21:00,
2013-08-10 14:26:00,88.8,75.5,30.04,South,180,6.0,11.0,65,0.00,,FEW048,0.00,197.00,VWS V14.00,2013-08-10 18:26:00,
2013-08-10 14:31:00,88.9,75.6,30.04,South,191,2.0,7.0,65,0.00,,FEW048,0.00,183.00,VWS V14.00,2013-08-10 18:31:00,
2013-08-10 14:36:00,89.2,73.0,30.04,SSE,150,9.0,11.0,59,0.00,,FEW048,0.00,181.00,VWS V14.00,2013-08-10 18:36:00,
2013-08-10 14:41:00,89.1,73.4,30.04,SSE,161,4.0,11.0,60,0.00,,FEW048,0.00,178.00,VWS V14.00,2013-08-10 18:41:00,
2013-08-10 14:46:00,89.2,73.5,30.04,SE,134,13.0,13.0,60,0.00,,FEW048,0.00,178.00,VWS V14.00,2013-08-10 18:46:00,
2013-08-10 14:51:00,89.1,74.4,30.03,South,171,6.0,12.0,62,0.00,,FEW048,0.00,186.00,VWS V14.00,2013-08-10 18:51:00,
2013-08-10 14:56:00,89.2,75.4,30.03,SSE,155,5.0,7.0,64,0.00,,FEW048,0.00,179.00,VWS V14.00,2013-08-10 18:56:00,
2013-08-10 15:01:00,89.1,74.9,30.03,South,184,11.0,13.0,63,0.00,,FEW048,0.00,174.00,VWS V14.00,2013-08-10 19:01:00,
2013-08-10 15:06:00,88.7,75.4,30.03,SSE,159,9.0,11.0,65,0.00,,FEW048,0.00,172.00,VWS V14.00,2013-08-10 19:06:00,
2013-08-10 15:11:00,88.7,74.0,30.03,South,188,8.0,13.0,62,0.00,,FEW048,0.00,188.00,VWS V14.00,2013-08-10 19:11:00,
2013-08-10 15:16:00,88.9,75.2,30.03,ESE,115,5.0,12.0,64,0.00,,FEW048,0.00,183.00,VWS V14.00,2013-08-10 19:16:00,
2013-08-10 15:21:00,88.3,76.0,30.03,SE,125,10.0,14.0,67,0.00,,FEW048,0.00,186.00,VWS V14.00,2013-08-10 19:21:00,
2013-08-10 15:26:00,87.7,75.8,30.03,SSE,152,6.0,6.0,68,0.00,,FEW048,0.00,176.00,VWS V14.00,2013-08-10 19:26:00,
2013-08-10 15:31:00,88.1,74.9,30.03,SE,136,9.0,15.0,65,0.00,,FEW048,0.00,174.00,VWS V14.00,2013-08-10 19:31:00,
2013-08-10 15:36:00,88.2,76.3,30.02,SSE,148,9.0,13.0,68,0.00,,FEW048,0.00,179.00,VWS V14.00,2013-08-10 19:36:00,
2013-08-10 15:41:00,88.4,75.6,30.02,South,190,6.0,15.0,66,0.00,,FEW048,0.00,186.00,VWS V14.00,2013-08-10 19:41:00,
2013-08-10 15:46:00,88.4,76.1,30.02,SSE,155,10.0,13.0,67,0.00,,FEW048,0.00,155.00,VWS V14.00,2013-08-10 19:46:00,
2013-08-10 15:51:00,88.5,76.6,30.02,ESE,119,7.0,10.0,68,0.00,,FEW048,0.00,188.00,VWS V14.00,2013-08-10 19:51:00,
2013-08-10 15:56:00,88.4,75.6,30.02,South,173,10.0,10.0,66,0.00,,FEW048,0.00,179.00,VWS V14.00,2013-08-10 19:56:00,
2013-08-10 16:01:00,88.5,75.7,30.01,SE,138,7.0,19.0,66,0.00,,FEW048,0.00,172.00,VWS V14.00,2013-08-10 20:01:00,
2013-08-10 16:06:00,88.5,75.7,30.01,SSE,153,5.0,12.0,66,0.00,,FEW048,0.00,146.00,VWS V14.00,2013-08-10 20:06:00,
2013-08-10 16:11:00,88.4,76.9,30.01,ESE,119,10.0,11.0,69,0.00,,FEW048,0.00,183.00,VWS V14.00,2013-08-10 20:11:00,
2013-08-10 16:16:00,87.8,76.8,30.01,ESE,103,12.0,12.0,70,0.00,,FEW048,0.00,65.00,VWS V14.00,2013-08-10 20:16:00,
2013-08-10 16:21:00,87.5,76.9,30.01,SE,137,6.0,10.0,71,0.00,,FEW048,0.00,163.00,VWS V14.00,2013-08-10 20:21:00,
2013-08-10 16:26:00,87.9,76.5,30.01,SE,138,5.0,11.0,69,0.00,,FEW048,0.00,165.00,VWS V14.00,2013-08-10 20:26:00,
2013-08-10 16:31:00,88.0,74.3,30.01,SSE,165,7.0,14.0,64,0.00,,FEW048,0.00,158.00,VWS V14.00,2013-08-10 20:31:00,
2013-08-10 16:36:00,87.8,75.9,30.01,SSE,153,11.0,11.0,68,0.00,,FEW048,0.00,53.00,VWS V14.00,2013-08-10 20:36:00,
2013-08-10 16:41:00,87.9,76.0,30.01,SSE,161,3.0,7.0,68,0.00,,FEW048,0.00,163.00,VWS V14.00,2013-08-10 20:41:00,
2013-08-10 16:46:00,87.8,75.9,30.01,SSE,160,11.0,14.0,68,0.00,,FEW048,0.00,153.00,VWS V14.00,2013-08-10 20:46:00,
2013-08-10 16:51:00,87.6,75.7,30.01,SSE,161,5.0,12.0,68,0.00,,FEW048,0.00,158.00,VWS V14.00,2013-08-10 20:51:00,
2013-08-10 16:56:00,87.5,74.8,30.01,SSW,197,9.0,15.0,66,0.00,,FEW048,0.00,155.00,VWS V14.00,2013-08-10 20:56:00,
2013-08-10 17:01:00,87.5,75.6,30.01,SSE,160,10.0,10.0,68,0.00,,FEW048,0.00,153.00,VWS V14.00,2013-08-10 21:01:00,
2013-08-10 17:06:00,87.8,76.4,30.01,SSE,148,0.0,13.0,69,0.00,,FEW048,0.00,162.00,VWS V14.00,2013-08-10 21:06:00,
2013-08-10 17:11:00,87.7,76.3,30.01,SSE,154,3.0,10.0,69,0.00,,FEW048,0.00,62.00,VWS V14.00,2013-08-10 21:11:00,
2013-08-10 17:16:00,87.3,75.9,30.01,SSE,163,11.0,15.0,69,0.00,,FEW048,0.00,153.00,VWS V14.00,2013-08-10 21:16:00,
2013-08-10 17:21:00,87.1,76.1,30.01,SSE,155,9.0,16.0,70,0.00,,FEW048,0.00,95.00,VWS V14.00,2013-08-10 21:21:00,
2013-08-10 17:26:00,87.1,76.1,30.01,SE,126,3.0,7.0,70,0.00,,FEW048,0.00,141.00,VWS V14.00,2013-08-10 21:26:00,
2013-08-10 17:31:00,87.2,75.4,30.01,South,189,6.0,13.0,68,0.00,,FEW048,0.00,139.00,VWS V14.00,2013-08-10 21:31:00,
2013-08-10 17:36:00,87.5,76.1,30.01,SSE,159,7.0,8.0,69,0.00,,FEW048,0.00,139.00,VWS V14.00,2013-08-10 21:36:00,
2013-08-10 17:41:00,87.7,76.3,30.01,South,175,6.0,10.0,69,0.00,,FEW048,0.00,97.00,VWS V14.00,2013-08-10 21:41:00,
2013-08-10 17:46:00,87.5,76.1,30.01,SE,132,8.0,10.0,69,0.00,,FEW048,0.00,134.00,VWS V14.00,2013-08-10 21:46:00,
2013-08-10 17:51:00,87.3,75.9,30.01,South,171,10.0,16.0,69,0.00,,FEW048,0.00,70.00,VWS V14.00,2013-08-10 21:51:00,
2013-08-10 17:56:00,86.9,75.5,30.01,SSE,162,10.0,12.0,69,0.00,,FEW048,0.00,128.00,VWS V14.00,2013-08-10 21:56:00,
2013-08-10 18:01:00,86.7,75.8,30.01,SE,131,6.0,11.0,70,0.00,,FEW048,0.00,127.00,VWS V14.00,2013-08-10 22:01:00,
2013-08-10 18:06:00,86.6,76.5,30.01,ESE,123,5.0,10.0,72,0.00,,FEW048,0.00,107.00,VWS V14.00,2013-08-10 22:06:00,
2013-08-10 18:11:00,86.6,75.7,30.01,SE,132,11.0,13.0,70,0.00,,FEW048,0.00,121.00,VWS V14.00,2013-08-10 22:11:00,
2013-08-10 18:16:00,86.4,75.9,30.01,SSE,148,9.0,9.0,71,0.00,,FEW048,0.00,116.00,VWS V14.00,2013-08-10 22:16:00,
2013-08-10 18:21:00,86.4,76.3,30.01,SSE,150,7.0,7.0,72,0.00,,FEW048,0.00,127.00,VWS V14.00,2013-08-10 22:21:00,
2013-08-10 18:26:00,86.5,76.0,30.01,SE,138,4.0,6.0,71,0.00,,FEW048,0.00,114.00,VWS V14.00,2013-08-10 22:26:00,
2013-08-10 18:32:00,86.6,75.7,30.01,SSE,156,3.0,7.0,70,0.00,,FEW048,0.00,91.00,VWS V14.00,2013-08-10 22:32:00,
2013-08-10 18:37:00,86.4,76.3,30.01,SE,141,4.0,5.0,72,0.00,,FEW048,0.00,98.00,VWS V14.00,2013-08-10 22:37:00,
2013-08-10 18:42:00,85.9,75.8,30.02,SSE,149,6.0,14.0,72,0.00,,FEW048,0.00,40.00,VWS V14.00,2013-08-10 22:42:00,
2013-08-10 18:47:00,85.6,76.0,30.02,SSE,149,5.0,5.0,73,0.00,,FEW048,0.00,37.00,VWS V14.00,2013-08-10 22:47:00,
2013-08-10 18:52:00,85.4,75.8,30.02,SSE,156,4.0,9.0,73,0.00,,FEW025,0.00,42.00,VWS V14.00,2013-08-10 22:52:00,
2013-08-10 18:57:00,85.5,76.3,30.02,SE,136,5.0,7.0,74,0.00,,FEW025,0.00,76.00,VWS V14.00,2013-08-10 22:57:00,
2013-08-10 19:02:00,85.5,76.7,30.02,SSE,158,9.0,11.0,75,0.00,,FEW025,0.00,37.00,VWS V14.00,2013-08-10 23:02:00,
2013-08-10 19:07:00,85.2,76.0,30.02,SSE,163,5.0,9.0,74,0.00,,FEW025,0.00,54.00,VWS V14.00,2013-08-10 23:07:00,
2013-08-10 19:12:00,85.1,76.3,30.02,SSE,150,8.0,12.0,75,0.00,,FEW025,0.00,28.00,VWS V14.00,2013-08-10 23:12:00,
2013-08-10 19:17:00,84.9,76.5,30.02,SE,146,4.0,12.0,76,0.00,,FEW025,0.00,26.00,VWS V14.00,2013-08-10 23:17:00,
2013-08-10 19:22:00,84.7,76.3,30.02,ESE,117,5.0,11.0,76,0.00,,FEW025,0.00,21.00,VWS V14.00,2013-08-10 23:22:00,
2013-08-10 19:27:00,84.5,75.7,30.02,SE,128,9.0,12.0,75,0.00,,FEW025,0.00,25.00,VWS V14.00,2013-08-10 23:27:00,
2013-08-10 19:32:00,84.5,76.1,30.02,SE,143,5.0,7.0,76,0.00,,FEW025,0.00,19.00,VWS V14.00,2013-08-10 23:32:00,
2013-08-10 19:37:00,84.3,75.9,30.02,SE,144,9.0,9.0,76,0.00,,FEW025,0.00,14.00,VWS V14.00,2013-08-10 23:37:00,
2013-08-10 19:42:00,84.3,75.9,30.02,SSE,147,7.0,9.0,76,0.00,,FEW025,0.00,11.00,VWS V14.00,2013-08-10 23:42:00,
2013-08-10 19:47:00,84.2,75.8,30.03,SE,144,6.0,6.0,76,0.00,,FEW025,0.00,7.00,VWS V14.00,2013-08-10 23:47:00,
2013-08-10 19:52:00,84.1,75.7,30.03,SE,146,6.0,10.0,76,0.00,,FEW025,0.00,0.00,VWS V14.00,2013-08-10 23:52:00,
2013-08-10 19:57:00,84.1,76.1,30.03,SSE,153,8.0,11.0,77,0.00,,FEW025,0.00,0.00,VWS V14.00,2013-08-10 23:57:00,
2013-08-10 20:02:00,84.0,76.0,30.02,SE,132,4.0,11.0,77,0.00,,FEW025,0.00,0.00,VWS V14.00,2013-08-11 00:02:00,
2013-08-10 20:07:00,83.9,75.9,30.03,SE,137,11.0,12.0,77,0.00,,FEW025,0.00,0.00,VWS V14.00,2013-08-11 00:07:00,
2013-08-10 20:12:00,83.8,75.8,30.03,SSE,150,5.0,10.0,77,0.00,,FEW025,0.00,0.00,VWS V14.00,2013-08-11 00:12:00,
2013-08-10 20:17:00,83.8,75.8,30.03,SE,140,4.0,12.0,77,0.00,,FEW025,0.00,0.00,VWS V14.00,2013-08-11 00:17:00,
2013-08-10 20:22:00,83.7,75.3,30.03,SE,135,8.0,12.0,76,0.00,,FEW025,0.00,0.00,VWS V14.00,2013-08-11 00:22:00,
2013-08-10 20:27:00,83.6,75.2,30.03,SE,145,3.0,6.0,76,0.00,,FEW025,0.00,0.00,VWS V14.00,2013-08-11 00:27:00,
2013-08-10 20:32:00,83.6,75.2,30.03,SE,144,3.0,6.0,76,0.00,,SCT025,0.00,0.00,VWS V14.00,2013-08-11 00:32:00,
2013-08-10 20:37:00,83.6,75.6,30.03,SSE,148,1.0,9.0,77,0.00,,SCT025,0.00,0.00,VWS V14.00,2013-08-11 00:37:00,
2013-08-10 20:42:00,83.6,76.0,30.03,SE,144,6.0,10.0,78,0.00,,SCT025,0.00,0.00,VWS V14.00,2013-08-11 00:42:00,
2013-08-10 20:47:00,83.6,76.0,30.03,SSE,148,6.0,10.0,78,0.00,,SCT025,0.00,0.00,VWS V14.00,2013-08-11 00:47:00,
2013-08-10 20:53:00,83.5,76.3,30.03,SE,140,4.0,5.0,79,0.00,,SCT025,0.00,0.00,VWS V14.00,2013-08-11 00:53:00,
2013-08-10 20:58:00,83.4,76.2,30.03,SSE,152,4.0,4.0,79,0.00,,SCT025,0.00,0.00,VWS V14.00,2013-08-11 00:58:00,
2013-08-10 21:03:00,83.3,76.1,30.03,SE,140,5.0,9.0,79,0.00,,SCT025,0.00,0.00,VWS V14.00,2013-08-11 01:03:00,
2013-08-10 21:08:00,83.2,76.0,30.03,SE,135,3.0,5.0,79,0.00,,SCT025,0.00,0.00,VWS V14.00,2013-08-11 01:08:00,
2013-08-10 21:13:00,83.2,76.0,30.03,SSE,147,6.0,7.0,79,0.00,,SCT025,0.00,0.00,VWS V14.00,2013-08-11 01:13:00,
2013-08-10 21:18:00,83.1,76.3,30.03,SE,144,4.0,6.0,80,0.00,,SCT025,0.00,0.00,VWS V14.00,2013-08-11 01:18:00,
2013-08-10 21:23:00,83.1,76.3,30.03,SE,135,10.0,10.0,80,0.00,,SCT025,0.00,0.00,VWS V14.00,2013-08-11 01:23:00,
2013-08-10 21:28:00,83.0,76.2,30.03,SE,138,7.0,7.0,80,0.00,,SCT025,0.00,0.00,VWS V14.00,2013-08-11 01:28:00,
2013-08-10 21:33:00,83.0,76.2,30.03,SE,131,10.0,11.0,80,0.00,,SCT035,0.00,0.00,VWS V14.00,2013-08-11 01:33:00,
2013-08-10 21:38:00,83.0,76.2,30.03,SE,144,6.0,7.0,80,0.00,,SCT035,0.00,0.00,VWS V14.00,2013-08-11 01:38:00,
2013-08-10 21:43:00,83.0,76.2,30.03,SE,144,9.0,10.0,80,0.00,,SCT035,0.00,0.00,VWS V14.00,2013-08-11 01:43:00,
2013-08-10 21:48:00,83.0,76.2,30.03,South,174,11.0,11.0,80,0.00,,SCT035,0.00,0.00,VWS V14.00,2013-08-11 01:48:00,
2013-08-10 21:53:00,83.0,76.2,30.04,SSE,148,12.0,12.0,80,0.00,,SCT035,0.00,0.00,VWS V14.00,2013-08-11 01:53:00,
2013-08-10 21:58:00,82.9,76.1,30.04,SE,139,11.0,11.0,80,0.00,,SCT035,0.00,0.00,VWS V14.00,2013-08-11 01:58:00,
2013-08-10 22:03:00,82.9,75.7,30.04,SSE,157,2.0,9.0,79,0.00,,SCT035,0.00,0.00,VWS V14.00,2013-08-11 02:03:00,
2013-08-10 22:08:00,82.9,75.7,30.04,SSE,147,3.0,9.0,79,0.00,,SCT035,0.00,0.00,VWS V14.00,2013-08-11 02:08:00,
2013-08-10 22:13:00,82.9,75.7,30.04,SE,144,7.0,9.0,79,0.00,,SCT035,0.00,0.00,VWS V14.00,2013-08-11 02:13:00,
2013-08-10 22:18:00,82.9,75.7,30.04,SSE,156,5.0,9.0,79,0.00,,SCT035,0.00,0.00,VWS V14.00,2013-08-11 02:18:00,
2013-08-10 22:23:00,82.8,75.6,30.05,SE,144,5.0,6.0,79,0.00,,SCT035,0.00,0.00,VWS V14.00,2013-08-11 02:23:00,
2013-08-10 22:28:00,82.9,75.7,30.05,SSE,150,3.0,10.0,79,0.00,,SCT035,0.00,0.00,VWS V14.00,2013-08-11 02:28:00,
2013-08-10 22:33:00,82.8,75.6,30.05,SSE,151,2.0,6.0,79,0.00,,SCT035,0.00,0.00,VWS V14.00,2013-08-11 02:33:00,
2013-08-10 22:38:00,82.8,75.6,30.05,SSE,153,6.0,6.0,79,0.00,,SCT035,0.00,0.00,VWS V14.00,2013-08-11 02:38:00,
2013-08-10 22:43:00,82.7,75.5,30.05,SSE,153,2.0,4.0,79,0.00,,SCT035,0.00,0.00,VWS V14.00,2013-08-11 02:43:00,
2013-08-10 22:48:00,82.7,75.5,30.05,SSE,153,4.0,7.0,79,0.00,,SCT035,0.00,0.00,VWS V14.00,2013-08-11 02:48:00,
2013-08-10 22:53:00,82.6,75.4,30.05,SSE,152,4.0,6.0,79,0.00,,SCT025,0.00,0.00,VWS V14.00,2013-08-11 02:53:00,
2013-08-10 22:58:00,82.6,75.4,30.05,SSE,152,0.0,4.0,79,0.00,,SCT025,0.00,0.00,VWS V14.00,2013-08-11 02:58:00,
2013-08-10 23:04:00,82.6,75.4,30.05,SSE,152,7.0,7.0,79,0.00,,SCT025,0.00,0.00,VWS V14.00,2013-08-11 03:04:00,
2013-08-10 23:09:00,82.6,75.4,30.05,SSE,156,5.0,7.0,79,0.00,,SCT025,0.00,0.00,VWS V14.00,2013-08-11 03:09:00,
2013-08-10 23:14:00,82.7,75.5,30.05,SSE,154,4.0,6.0,79,0.00,,SCT025,0.00,0.00,VWS V14.00,2013-08-11 03:14:00,
2013-08-10 23:19:00,82.6,75.4,30.06,SSE,155,5.0,6.0,79,0.00,,SCT025,0.00,0.00,VWS V14.00,2013-08-11 03:19:00,
2013-08-10 23:24:00,82.6,75.4,30.06,SSE,156,0.0,3.0,79,0.00,,SCT025,0.00,0.00,VWS V14.00,2013-08-11 03:24:00,
2013-08-10 23:29:00,82.5,75.3,30.05,SSE,156,4.0,7.0,79,0.00,,SCT025,0.00,0.00,VWS V14.00,2013-08-11 03:29:00,
2013-08-10 23:34:00,82.5,75.3,30.05,SSE,156,4.0,5.0,79,0.00,,CLR,0.00,0.00,VWS V14.00,2013-08-11 03:34:00,
2013-08-10 23:40:00,82.5,74.9,30.06,SSE,152,6.0,10.0,78,0.00,,CLR,0.00,0.00,VWS V14.00,2013-08-11 03:40:00,
2013-08-10 23:45:00,82.5,74.9,30.05,SSE,152,4.0,4.0,78,0.00,,CLR,0.00,0.00,VWS V14.00,2013-08-11 03:45:00,
2013-08-10 23:50:00,82.4,74.9,30.05,SSE,152,0.0,1.0,78,0.00,,CLR,0.00,0.00,VWS V14.00,2013-08-11 03:50:00,
2013-08-10 23:55:00,82.4,75.2,30.06,SSE,152,0.0,2.0,79,0.00,,CLR,0.00,0.00,VWS V14.00,2013-08-11 03:55:00,